createdAt,value
2023-02-19T00:01:49.071Z,26.75
2023-02-19T00:04:19.815Z,22.40
2023-02-19T00:06:49.517Z,23.05
2023-02-19T00:09:18.976Z,26.95
2023-02-19T00:11:47.975Z,22.15
2023-02-19T00:14:18.583Z,22.00
2023-02-19T00:16:46.758Z,25.40
2023-02-19T00:19:17.134Z,26.67
2023-02-19T00:21:44.730Z,24.00
2023-02-19T00:24:14.198Z,25.55
2023-02-19T00:26:43.279Z,23.23
2023-02-19T00:29:16.502Z,19.65
2023-02-19T00:31:45.216Z,22.77
2023-02-19T00:34:14.155Z,28.67
2023-02-19T00:36:43.277Z,25.77
2023-02-19T00:39:15.989Z,24.65
2023-02-19T00:41:44.568Z,25.85
2023-02-19T00:44:13.196Z,23.35
2023-02-19T00:46:46.647Z,16.55
2023-02-19T00:49:18.044Z,21.13
2023-02-19T00:51:46.012Z,22.42
2023-02-19T00:54:14.200Z,23.30
2023-02-19T00:56:42.352Z,17.40
2023-02-19T00:59:10.339Z,20.58
2023-02-19T01:01:39.014Z,23.52
2023-02-19T01:04:07.218Z,27.67
2023-02-19T01:06:35.761Z,18.70
2023-02-19T01:09:05.376Z,21.52
2023-02-19T01:11:32.926Z,27.85
2023-02-19T01:14:02.161Z,23.15
2023-02-19T01:16:29.853Z,23.60
2023-02-19T01:18:58.435Z,18.27
2023-02-19T01:21:27.698Z,26.80
2023-02-19T01:23:56.514Z,23.77
2023-02-19T01:26:29.676Z,29.92
2023-02-19T01:28:59.211Z,33.58
2023-02-19T01:31:27.117Z,34.50
2023-02-19T01:34:02.523Z,28.45
2023-02-19T01:36:32.714Z,25.40
2023-02-19T01:39:04.099Z,23.77
2023-02-19T01:41:34.791Z,23.00
2023-02-19T01:44:12.562Z,24.20
2023-02-19T01:46:45.436Z,30.45
2023-02-19T01:49:24.339Z,24.33
2023-02-19T01:52:15.345Z,22.00
2023-02-19T01:54:46.351Z,25.83
2023-02-19T01:57:21.876Z,22.70
2023-02-19T01:59:55.497Z,23.13
2023-02-19T02:02:25.443Z,24.15
2023-02-19T02:04:53.528Z,21.15
2023-02-19T02:07:39.744Z,22.80
2023-02-19T02:10:23.220Z,24.13
2023-02-19T02:12:53.500Z,26.08
2023-02-19T02:15:22.629Z,24.40
2023-02-19T02:18:17.469Z,20.40
2023-02-19T02:21:06.345Z,29.35
2023-02-19T02:23:58.593Z,25.40
2023-02-19T02:26:45.661Z,23.27
2023-02-19T02:29:55.272Z,23.88
2023-02-19T02:32:34.084Z,22.38
2023-02-19T02:35:10.019Z,25.67
2023-02-19T02:37:42.780Z,28.40
2023-02-19T02:40:11.326Z,20.73
2023-02-19T02:42:41.097Z,28.10
2023-02-19T02:45:37.358Z,27.23
2023-02-19T02:48:21.587Z,24.00
2023-02-19T02:51:01.012Z,29.10
2023-02-19T02:54:08.774Z,26.05
2023-02-19T02:56:37.256Z,27.90
2023-02-19T02:59:09.301Z,33.00
2023-02-19T03:02:00.373Z,24.92
2023-02-19T03:04:33.486Z,23.42
2023-02-19T03:07:09.842Z,31.15
2023-02-19T03:09:43.533Z,26.58
2023-02-19T03:12:36.894Z,29.20
2023-02-19T03:15:29.559Z,22.60
2023-02-19T03:18:21.134Z,33.10
2023-02-19T03:20:53.629Z,26.15
2023-02-19T03:23:44.937Z,29.35
2023-02-19T03:26:14.457Z,26.40
2023-02-19T03:29:11.787Z,27.08
2023-02-19T03:31:45.156Z,31.27
2023-02-19T03:34:17.959Z,27.65
2023-02-19T03:36:51.557Z,29.15
2023-02-19T03:42:03.714Z,27.27
2023-02-19T03:44:46.665Z,37.83
2023-02-19T03:47:28.269Z,30.08
2023-02-19T03:50:22.563Z,32.50
2023-02-19T03:53:04.223Z,33.13
2023-02-19T03:56:01.934Z,31.75
2023-02-19T03:58:42.546Z,35.97
2023-02-19T04:01:16.778Z,35.03
2023-02-19T04:03:54.493Z,34.63
2023-02-19T04:06:30.454Z,35.25
2023-02-19T04:09:08.496Z,39.78
2023-02-19T04:11:39.011Z,33.03
2023-02-19T04:14:21.632Z,32.63
2023-02-19T04:16:56.080Z,34.08
2023-02-19T04:19:26.798Z,33.60
2023-02-19T04:21:55.349Z,29.80
2023-02-19T04:24:32.227Z,34.53
2023-02-19T04:27:00.113Z,32.63
2023-02-19T04:29:27.654Z,34.47
2023-02-19T04:31:55.254Z,31.83
2023-02-19T04:34:22.821Z,35.05
2023-02-19T04:36:50.270Z,35.28
2023-02-19T04:39:17.935Z,41.08
2023-02-19T04:41:45.416Z,39.65
2023-02-19T04:44:13.046Z,47.60
2023-02-19T04:46:43.133Z,41.05
2023-02-19T04:49:12.189Z,45.97
2023-02-19T04:51:40.634Z,42.90
2023-02-19T04:54:08.396Z,41.05
2023-02-19T04:56:36.059Z,40.42
2023-02-19T04:59:03.886Z,36.45
2023-02-19T05:01:31.543Z,39.38
2023-02-19T05:03:59.612Z,45.08
2023-02-19T05:06:27.797Z,49.30
2023-02-19T05:08:55.313Z,45.75
2023-02-19T05:11:24.169Z,44.38
2023-02-19T05:13:51.674Z,40.60
2023-02-19T05:16:19.355Z,41.28
2023-02-19T05:18:47.731Z,43.03
2023-02-19T05:21:16.509Z,38.88
2023-02-19T05:23:44.687Z,41.22
2023-02-19T05:26:18.252Z,43.80
2023-02-19T05:28:47.498Z,39.30
2023-02-19T05:31:15.459Z,40.45
2023-02-19T05:33:43.430Z,28.73
2023-02-19T05:36:14.100Z,30.83
2023-02-19T05:38:42.423Z,29.52
2023-02-19T05:41:18.301Z,31.58
2023-02-19T05:43:47.413Z,40.63
2023-02-19T05:46:18.074Z,32.60
2023-02-19T05:48:46.516Z,29.45
2023-02-19T05:51:16.616Z,36.58
2023-02-19T05:53:44.996Z,29.73
2023-02-19T05:56:34.807Z,37.03
2023-02-19T05:59:16.681Z,31.13
2023-02-19T06:01:44.622Z,41.20
2023-02-19T06:04:13.353Z,36.95
2023-02-19T06:06:42.166Z,40.20
2023-02-19T06:09:09.921Z,31.75
2023-02-19T06:11:38.081Z,31.15
2023-02-19T06:14:06.578Z,29.27
2023-02-19T06:16:34.784Z,29.33
2023-02-19T06:19:06.737Z,35.30
2023-02-19T06:21:34.664Z,28.27
2023-02-19T06:24:07.565Z,27.15
2023-02-19T06:26:36.057Z,31.37
2023-02-19T06:29:04.518Z,32.00
2023-02-19T06:31:32.591Z,34.88
2023-02-19T06:34:00.231Z,29.85
2023-02-19T06:36:28.049Z,28.70
2023-02-19T06:39:00.213Z,30.60
2023-02-19T06:41:27.755Z,27.75
2023-02-19T06:43:55.366Z,28.92
2023-02-19T06:46:22.948Z,32.65
2023-02-19T06:48:50.803Z,29.27
2023-02-19T06:51:23.000Z,29.63
2023-02-19T06:53:50.802Z,32.60
2023-02-19T06:56:28.422Z,29.98
2023-02-19T06:59:00.802Z,32.00
2023-02-19T07:01:30.650Z,27.80
2023-02-19T07:03:58.824Z,29.40
2023-02-19T07:06:30.117Z,27.45
2023-02-19T07:08:59.270Z,24.23
2023-02-19T07:11:29.453Z,26.38
2023-02-19T07:14:02.724Z,29.23
2023-02-19T07:16:31.115Z,31.63
2023-02-19T07:19:00.224Z,28.42
2023-02-19T07:21:29.365Z,27.13
2023-02-19T07:23:57.496Z,28.15
2023-02-19T07:26:25.673Z,31.55
2023-02-19T07:28:53.397Z,26.38
2023-02-19T07:31:24.513Z,27.45
2023-02-19T07:33:54.687Z,25.50
2023-02-19T07:36:24.387Z,28.17
2023-02-19T07:39:02.146Z,24.77
2023-02-19T07:41:29.763Z,25.35
2023-02-19T07:43:59.342Z,24.27
2023-02-19T07:46:39.555Z,24.05
2023-02-19T07:49:17.007Z,25.00
2023-02-19T07:51:47.758Z,25.38
2023-02-19T07:54:19.249Z,23.75
2023-02-19T07:56:46.823Z,22.10
2023-02-19T07:59:19.738Z,22.85
2023-02-19T08:02:06.114Z,22.83
2023-02-19T08:04:33.734Z,20.08
2023-02-19T08:07:01.327Z,19.98
2023-02-19T08:09:29.007Z,21.50
2023-02-19T08:12:14.644Z,25.27
2023-02-19T08:14:42.363Z,24.10
2023-02-19T08:17:09.959Z,25.27
2023-02-19T08:19:37.665Z,22.02
2023-02-19T08:22:05.262Z,22.13
2023-02-19T08:24:34.159Z,22.63
2023-02-19T08:27:01.839Z,21.90
2023-02-19T08:29:29.362Z,23.08
2023-02-19T08:31:57.069Z,23.40
2023-02-19T08:34:24.567Z,23.63
2023-02-19T08:36:52.211Z,21.65
2023-02-19T08:39:21.057Z,30.33
2023-02-19T08:41:48.776Z,23.95
2023-02-19T08:44:16.304Z,24.17
2023-02-19T08:46:43.889Z,24.02
2023-02-19T08:49:11.335Z,22.60
2023-02-19T08:51:38.884Z,24.75
2023-02-19T08:54:06.520Z,22.27
2023-02-19T08:56:34.143Z,25.73
2023-02-19T08:59:01.679Z,22.00
2023-02-19T09:01:29.388Z,19.92
2023-02-19T09:03:57.132Z,20.63
2023-02-19T09:06:24.675Z,24.33
2023-02-19T09:08:52.268Z,22.50
2023-02-19T09:11:19.872Z,21.23
2023-02-19T09:13:47.370Z,19.48
2023-02-19T09:16:14.929Z,20.48
2023-02-19T09:18:42.477Z,25.88
2023-02-19T09:21:10.453Z,19.70
2023-02-19T09:23:38.653Z,21.30
2023-02-19T09:26:10.305Z,20.58
2023-02-19T09:28:42.035Z,23.92
2023-02-19T09:31:13.362Z,21.27
2023-02-19T09:33:48.690Z,20.90
2023-02-19T09:36:17.232Z,23.42
2023-02-19T09:38:45.412Z,23.77
2023-02-19T09:41:23.469Z,21.90
2023-02-19T09:43:51.563Z,22.75
2023-02-19T09:46:28.823Z,25.05
2023-02-19T09:49:21.913Z,24.48
2023-02-19T09:54:25.810Z,20.85
2023-02-19T09:56:56.628Z,23.25
2023-02-19T09:59:42.334Z,22.10
2023-02-19T10:02:20.221Z,20.92
2023-02-19T10:04:49.349Z,21.75
2023-02-19T10:07:23.952Z,20.70
2023-02-19T10:10:14.380Z,19.95
2023-02-19T10:12:47.300Z,19.85
2023-02-19T10:15:25.925Z,21.45
2023-02-19T10:17:53.657Z,20.67
2023-02-19T10:20:25.116Z,21.83
2023-02-19T10:23:07.990Z,22.98
2023-02-19T10:25:36.317Z,20.15
2023-02-19T10:28:04.867Z,21.55
2023-02-19T10:30:36.006Z,19.92
2023-02-19T10:33:13.446Z,24.25
2023-02-19T10:36:00.205Z,21.10
2023-02-19T10:38:48.494Z,20.83
2023-02-19T10:41:22.905Z,20.20
2023-02-19T10:44:01.411Z,19.73
2023-02-19T10:46:33.153Z,19.08
2023-02-19T10:49:30.798Z,18.40
2023-02-19T10:52:10.709Z,16.95
2023-02-19T10:54:39.010Z,17.70
2023-02-19T10:57:15.524Z,16.58
2023-02-19T10:59:58.592Z,21.13
2023-02-19T11:02:27.069Z,19.40
2023-02-19T11:05:10.030Z,19.73
2023-02-19T11:07:39.004Z,17.00
2023-02-19T11:10:07.571Z,19.77
2023-02-19T11:12:35.752Z,22.42
2023-02-19T11:15:26.036Z,21.13
2023-02-19T11:18:15.613Z,18.58
2023-02-19T11:21:04.241Z,23.42
2023-02-19T11:23:32.910Z,18.23
2023-02-19T11:26:03.884Z,21.63
2023-02-19T11:28:35.498Z,22.15
2023-02-19T11:31:28.595Z,21.95
2023-02-19T11:33:57.620Z,21.23
2023-02-19T11:36:29.950Z,23.42
2023-02-19T11:39:01.377Z,22.23
2023-02-19T11:41:44.026Z,21.27
2023-02-19T11:44:20.630Z,17.63
2023-02-19T11:47:17.470Z,16.23
2023-02-19T11:49:59.156Z,23.10
2023-02-19T11:52:42.674Z,22.75
2023-02-19T11:55:25.944Z,23.38
2023-02-19T12:00:28.383Z,24.42
2023-02-19T12:03:20.329Z,25.20
2023-02-19T12:06:03.202Z,28.77
2023-02-19T12:08:38.111Z,21.80
2023-02-19T12:11:34.679Z,24.33
2023-02-19T12:14:43.905Z,33.22
2023-02-19T12:17:47.022Z,26.55
2023-02-19T12:20:36.652Z,21.30
2023-02-19T12:23:07.331Z,24.38
2023-02-19T12:25:37.918Z,28.80
2023-02-19T12:28:23.853Z,29.58
2023-02-19T12:30:59.919Z,29.63
2023-02-19T12:34:00.436Z,24.58
2023-02-19T12:36:58.715Z,28.48
2023-02-19T12:39:47.659Z,26.45
2023-02-19T12:42:46.607Z,31.27
2023-02-19T12:45:23.600Z,29.58
2023-02-19T12:48:04.674Z,22.10
2023-02-19T12:50:35.561Z,24.35
2023-02-19T12:53:25.387Z,19.27
2023-02-19T12:55:54.855Z,25.02
2023-02-19T12:58:33.605Z,20.70
2023-02-19T13:01:01.425Z,31.10
2023-02-19T13:03:57.598Z,25.17
2023-02-19T13:06:34.828Z,21.65
2023-02-19T13:09:24.183Z,15.75
2023-02-19T13:11:59.641Z,12.15
2023-02-19T13:14:37.822Z,15.80
2023-02-19T13:17:32.806Z,17.55
2023-02-19T13:20:15.832Z,19.48
2023-02-19T13:23:14.262Z,17.15
2023-02-19T13:26:04.309Z,14.57
2023-02-19T13:28:53.092Z,8.05
2023-02-19T13:31:58.016Z,19.73
2023-02-19T13:34:44.032Z,15.98
2023-02-19T13:37:12.363Z,15.27
2023-02-19T13:39:50.471Z,13.50
2023-02-19T13:42:26.566Z,20.27
2023-02-19T13:44:57.983Z,20.05
2023-02-19T13:47:48.832Z,11.70
2023-02-19T13:50:23.520Z,19.10
2023-02-19T13:52:54.950Z,13.27
2023-02-19T13:55:46.403Z,22.00
2023-02-19T13:58:51.581Z,11.73
2023-02-19T14:01:19.292Z,16.45
2023-02-19T14:03:53.774Z,13.95
2023-02-19T14:06:22.038Z,20.58
2023-02-19T14:08:58.715Z,19.25
2023-02-19T14:11:44.716Z,13.50
2023-02-19T14:14:36.962Z,13.95
2023-02-19T14:17:10.582Z,24.15
2023-02-19T14:19:49.278Z,25.50
2023-02-19T14:22:52.942Z,16.63
2023-02-19T14:25:30.867Z,14.10
2023-02-19T14:28:12.050Z,30.00
2023-02-19T14:30:45.855Z,16.75
2023-02-19T14:35:47.640Z,9.52
2023-02-19T14:38:32.530Z,20.13
2023-02-19T14:41:01.415Z,32.47
2023-02-19T14:43:30.423Z,15.77
2023-02-19T14:46:08.041Z,21.50
2023-02-19T14:48:40.387Z,17.38
2023-02-19T14:51:14.787Z,31.15
2023-02-19T14:53:45.208Z,21.42
2023-02-19T14:56:26.731Z,22.13
2023-02-19T14:59:14.380Z,33.78
2023-02-19T15:01:41.915Z,31.80
2023-02-19T15:04:23.357Z,22.85
2023-02-19T15:06:53.780Z,16.30
2023-02-19T15:09:22.340Z,31.85
2023-02-19T15:11:50.505Z,13.90
2023-02-19T15:14:22.904Z,20.13
2023-02-19T15:16:58.700Z,17.35
2023-02-19T15:19:26.649Z,11.40
2023-02-19T15:21:55.483Z,23.52
2023-02-19T15:24:23.397Z,6.78
2023-02-19T15:26:58.148Z,30.80
2023-02-19T15:29:29.160Z,7.43
2023-02-19T15:32:00.533Z,20.38
2023-02-19T15:34:30.382Z,15.65
2023-02-19T15:37:12.509Z,28.02
2023-02-19T15:39:51.888Z,32.13
2023-02-19T15:42:32.274Z,15.40
2023-02-19T15:45:05.712Z,36.42
2023-02-19T15:47:45.949Z,14.13
2023-02-19T15:50:22.987Z,31.30
2023-02-19T15:53:09.734Z,33.65
2023-02-19T15:55:44.393Z,14.60
2023-02-19T15:58:28.599Z,20.13
2023-02-19T16:01:00.326Z,19.77
2023-02-19T16:03:29.771Z,25.17
2023-02-19T16:06:15.459Z,47.42
2023-02-19T16:08:55.496Z,33.55
2023-02-19T16:11:23.101Z,11.60
2023-02-19T16:14:14.282Z,21.15
2023-02-19T16:16:43.537Z,33.40
2023-02-19T16:19:11.481Z,23.23
2023-02-19T16:21:39.605Z,35.00
2023-02-19T16:24:19.038Z,8.45
2023-02-19T16:26:46.870Z,21.42
2023-02-19T16:29:23.478Z,20.10
2023-02-19T16:32:00.129Z,15.63
2023-02-19T16:34:34.779Z,9.93
2023-02-19T16:37:04.117Z,16.75
2023-02-19T16:39:32.869Z,19.83
2023-02-19T16:42:00.443Z,18.30
2023-02-19T16:44:27.882Z,27.95
2023-02-19T16:47:04.129Z,31.55
2023-02-19T16:49:32.576Z,27.45
2023-02-19T16:52:03.843Z,27.63
2023-02-19T16:54:32.109Z,21.33
2023-02-19T16:56:59.678Z,30.80
2023-02-19T16:59:27.279Z,15.55
2023-02-19T17:01:54.820Z,19.75
2023-02-19T17:04:22.483Z,25.65
2023-02-19T17:06:50.114Z,19.70
2023-02-19T17:09:17.684Z,14.98
2023-02-19T17:11:45.182Z,43.65
2023-02-19T17:14:12.732Z,22.02
2023-02-19T17:16:40.774Z,25.52
2023-02-19T17:19:18.407Z,17.15
2023-02-19T17:21:47.086Z,13.95
2023-02-19T17:24:15.124Z,30.27
2023-02-19T17:26:43.237Z,35.95
2023-02-19T17:29:15.001Z,29.58
2023-02-19T17:31:42.740Z,36.78
2023-02-19T17:34:10.957Z,16.27
2023-02-19T17:36:38.551Z,25.95
2023-02-19T17:39:14.850Z,19.67
2023-02-19T17:41:42.537Z,24.60
2023-02-19T17:44:10.684Z,17.30
2023-02-19T17:46:39.249Z,24.48
2023-02-19T17:49:07.855Z,30.42
2023-02-19T17:51:35.914Z,26.75
2023-02-19T17:54:03.456Z,33.28
2023-02-19T17:56:30.969Z,37.65
2023-02-19T17:58:59.237Z,25.70
2023-02-19T18:01:26.991Z,19.65
2023-02-19T18:03:54.663Z,23.52
2023-02-19T18:06:22.331Z,29.92
2023-02-19T18:08:52.283Z,17.75
2023-02-19T18:11:24.107Z,34.25
2023-02-19T18:13:52.638Z,18.05
2023-02-19T18:16:22.686Z,8.07
2023-02-19T18:18:50.935Z,12.45
2023-02-19T18:21:18.545Z,10.63
2023-02-19T18:23:47.545Z,22.40
2023-02-19T18:26:19.710Z,19.17
2023-02-19T18:28:47.392Z,19.55
2023-02-19T18:31:15.486Z,25.98
2023-02-19T18:33:43.374Z,19.60
2023-02-19T18:36:12.264Z,8.88
2023-02-19T18:38:40.376Z,24.25
2023-02-19T18:41:11.910Z,18.80
2023-02-19T18:43:41.687Z,14.40
2023-02-19T18:46:10.401Z,34.55
2023-02-19T18:48:38.937Z,25.33
2023-02-19T18:51:10.703Z,31.85
2023-02-19T18:53:38.761Z,9.40
2023-02-19T18:56:09.252Z,18.73
2023-02-19T18:58:36.851Z,15.65
2023-02-19T19:01:04.610Z,21.80
2023-02-19T19:03:32.470Z,25.25
2023-02-19T19:06:00.286Z,21.85
2023-02-19T19:08:29.755Z,23.15
2023-02-19T19:10:58.151Z,22.30
2023-02-19T19:13:25.894Z,20.30
2023-02-19T19:15:53.428Z,24.63
2023-02-19T19:18:21.302Z,24.85
2023-02-19T19:20:48.900Z,28.00
2023-02-19T19:23:16.550Z,16.10
2023-02-19T19:25:44.208Z,19.90
2023-02-19T19:28:11.812Z,16.23
2023-02-19T19:30:39.523Z,28.08
2023-02-19T19:33:07.396Z,12.10
2023-02-19T19:35:35.065Z,23.75
2023-02-19T19:38:02.708Z,14.52
2023-02-19T19:40:30.497Z,19.40
2023-02-19T19:42:58.052Z,18.95
2023-02-19T19:45:25.690Z,19.85
2023-02-19T19:47:53.483Z,23.90
2023-02-19T19:50:21.261Z,16.55
2023-02-19T19:52:48.733Z,27.25
2023-02-19T19:55:16.762Z,19.40
2023-02-19T19:57:44.345Z,14.63
2023-02-19T20:00:16.453Z,15.10
2023-02-19T20:02:45.181Z,25.65
2023-02-19T20:05:14.757Z,19.95
2023-02-19T20:07:42.358Z,17.70
2023-02-19T20:10:13.218Z,23.98
2023-02-19T20:12:41.238Z,20.33
2023-02-19T20:15:09.249Z,22.10
2023-02-19T20:17:37.010Z,22.05
2023-02-19T20:20:08.647Z,21.95
2023-02-19T20:22:37.129Z,15.40
2023-02-19T20:25:04.775Z,15.73
2023-02-19T20:27:32.586Z,12.77
2023-02-19T20:30:00.208Z,19.83
2023-02-19T20:32:27.807Z,20.30
2023-02-19T20:34:55.533Z,22.58
2023-02-19T20:37:23.089Z,22.25
2023-02-19T20:39:50.742Z,19.23
2023-02-19T20:42:19.147Z,23.00
2023-02-19T20:44:46.810Z,24.13
2023-02-19T20:47:14.334Z,15.90
2023-02-19T20:49:46.625Z,14.07
2023-02-19T20:52:16.384Z,17.60
2023-02-19T20:54:44.781Z,14.23
2023-02-19T20:57:13.142Z,17.90
2023-02-19T20:59:41.171Z,14.32
2023-02-19T21:02:15.137Z,8.45
2023-02-19T21:04:42.903Z,19.45
2023-02-19T21:07:10.525Z,12.68
2023-02-19T21:09:38.229Z,19.85
2023-02-19T21:12:05.962Z,19.80
2023-02-19T21:14:33.593Z,20.35
2023-02-19T21:17:01.182Z,14.52
2023-02-19T21:19:28.776Z,12.45
2023-02-19T21:21:56.342Z,26.73
2023-02-19T21:24:23.858Z,18.45
2023-02-19T21:26:51.492Z,16.08
2023-02-19T21:29:21.771Z,19.42
2023-02-19T21:31:51.966Z,17.00
2023-02-19T21:34:23.055Z,25.15
2023-02-19T21:36:51.001Z,22.15
2023-02-19T21:39:21.255Z,17.98
2023-02-19T21:41:49.046Z,16.50
2023-02-19T21:44:17.590Z,13.95
2023-02-19T21:46:45.204Z,14.98
2023-02-19T21:49:13.412Z,23.45
2023-02-19T21:51:42.932Z,17.42
2023-02-19T21:54:16.731Z,12.52
2023-02-19T21:56:44.378Z,15.05
2023-02-19T21:59:12.016Z,21.98
2023-02-19T22:01:39.620Z,12.02
2023-02-19T22:04:08.859Z,8.40
2023-02-19T22:06:37.218Z,12.48
2023-02-19T22:09:04.822Z,10.45
2023-02-19T22:11:32.379Z,22.92
2023-02-19T22:13:59.955Z,14.77
2023-02-19T22:16:28.440Z,13.05
2023-02-19T22:18:58.946Z,12.00
2023-02-19T22:21:32.689Z,22.13
2023-02-19T22:24:02.050Z,21.33
2023-02-19T22:26:35.484Z,21.50
2023-02-19T22:29:07.490Z,21.42
2023-02-19T22:31:35.839Z,17.25
2023-02-19T22:34:04.412Z,5.35
2023-02-19T22:36:34.717Z,16.17
2023-02-19T22:39:02.467Z,17.38
2023-02-19T22:41:30.080Z,16.58
2023-02-19T22:43:59.112Z,13.98
2023-02-19T22:46:29.829Z,16.23
2023-02-19T22:48:59.347Z,15.07
2023-02-19T22:51:27.102Z,10.90
2023-02-19T22:53:57.530Z,21.40
2023-02-19T22:56:27.525Z,8.25
2023-02-19T22:58:56.791Z,18.27
2023-02-19T23:01:25.260Z,14.13
2023-02-19T23:04:01.581Z,14.82
2023-02-19T23:06:34.328Z,14.00
2023-02-19T23:09:10.954Z,22.55
2023-02-19T23:11:39.566Z,15.30
2023-02-19T23:14:08.041Z,12.43
2023-02-19T23:16:38.742Z,20.95
2023-02-19T23:19:10.068Z,25.48
2023-02-19T23:21:39.460Z,19.52
2023-02-19T23:24:07.325Z,18.02
2023-02-19T23:26:35.025Z,9.55
2023-02-19T23:29:03.229Z,13.18
2023-02-19T23:31:30.843Z,7.70
2023-02-19T23:33:58.393Z,8.70
2023-02-19T23:36:26.352Z,14.93
2023-02-19T23:38:54.001Z,13.27
2023-02-19T23:41:21.480Z,10.48
2023-02-19T23:43:49.018Z,7.80
2023-02-19T23:46:18.169Z,11.85
2023-02-19T23:48:46.557Z,14.30
2023-02-19T23:51:14.357Z,18.50
2023-02-19T23:53:42.044Z,25.58
2023-02-19T23:56:09.869Z,19.70
2023-02-19T23:58:37.520Z,10.52
